createdAt,value
2019-05-11T00:00:46.323Z,78.31
2019-05-11T00:03:13.774Z,78.76
2019-05-11T00:05:41.809Z,79.17
2019-05-11T00:08:09.230Z,79.41
2019-05-11T00:10:36.662Z,79.51
2019-05-11T00:13:04.070Z,79.88
2019-05-11T00:15:31.506Z,79.86
2019-05-11T00:17:59.089Z,79.93
2019-05-11T00:20:26.540Z,80.85
2019-05-11T00:22:53.978Z,80.08
2019-05-11T00:25:21.419Z,79.10
2019-05-11T00:27:48.867Z,79.53
2019-05-11T00:30:16.389Z,79.46
2019-05-11T00:32:43.837Z,79.27
2019-05-11T00:35:11.252Z,79.41
2019-05-11T00:37:38.717Z,80.09
2019-05-11T00:40:14.520Z,80.55
2019-05-11T00:42:35.574Z,80.73
2019-05-11T00:45:03.526Z,81.03
2019-05-11T00:47:30.925Z,81.36
2019-05-11T00:49:58.351Z,82.03
2019-05-11T00:52:25.837Z,81.79
2019-05-11T00:54:53.316Z,82.92
2019-05-11T00:57:20.760Z,82.89
2019-05-11T00:59:48.276Z,82.12
2019-05-11T01:02:15.714Z,81.66
2019-05-11T01:04:43.795Z,80.94
2019-05-11T01:07:11.805Z,80.23
2019-05-11T01:09:39.362Z,80.26
2019-05-11T01:12:06.797Z,80.58
2019-05-11T01:14:35.486Z,81.37
2019-05-11T01:17:02.946Z,82.03
2019-05-11T01:19:30.626Z,83.11
2019-05-11T01:21:58.072Z,82.83
2019-05-11T01:24:25.502Z,82.76
2019-05-11T01:26:52.869Z,83.66
2019-05-11T01:29:20.330Z,83.87
2019-05-11T01:31:47.768Z,82.87
2019-05-11T01:34:15.166Z,83.85
2019-05-11T01:36:42.623Z,85.36
2019-05-11T01:39:10.092Z,85.23
2019-05-11T01:41:37.475Z,85.29
2019-05-11T01:44:04.966Z,84.50
2019-05-11T01:46:32.938Z,83.58
2019-05-11T01:49:00.380Z,83.19
2019-05-11T01:51:27.835Z,82.86
2019-05-11T01:53:55.281Z,82.71
2019-05-11T01:56:22.830Z,82.70
2019-05-11T01:58:50.301Z,83.06
2019-05-11T02:01:17.754Z,83.55
2019-05-11T02:03:45.196Z,83.74
2019-05-11T02:06:12.650Z,84.10
2019-05-11T02:08:40.052Z,84.16
2019-05-11T02:11:15.784Z,84.13
2019-05-11T02:13:37.009Z,84.23
2019-05-11T02:16:04.416Z,84.10
2019-05-11T02:18:31.860Z,84.14
2019-05-11T02:20:59.294Z,85.22
2019-05-11T02:23:26.735Z,84.54
2019-05-11T02:25:54.122Z,84.54
2019-05-11T02:28:21.541Z,85.25
2019-05-11T02:30:48.984Z,84.80
2019-05-11T02:33:16.377Z,85.27
2019-05-11T02:35:43.957Z,86.11
2019-05-11T02:38:11.381Z,86.18
2019-05-11T02:40:38.771Z,85.71
2019-05-11T02:43:06.203Z,85.77
2019-05-11T02:45:39.050Z,85.64
2019-05-11T02:48:06.433Z,85.84
2019-05-11T02:50:35.933Z,86.87
2019-05-11T02:53:04.006Z,86.91
2019-05-11T02:55:33.314Z,87.76
2019-05-11T02:58:00.836Z,87.49
2019-05-11T03:00:38.333Z,87.81
2019-05-11T03:03:05.850Z,88.00
2019-05-11T03:05:33.306Z,87.66
2019-05-11T03:08:01.365Z,87.48
2019-05-11T03:10:28.788Z,88.27
2019-05-11T03:12:56.263Z,88.99
2019-05-11T03:15:23.733Z,88.68
2019-05-11T03:17:51.218Z,89.46
2019-05-11T03:20:18.667Z,89.05
2019-05-11T03:22:46.071Z,90.92
2019-05-11T03:25:13.745Z,91.91
2019-05-11T03:27:41.253Z,92.49
2019-05-11T03:30:09.146Z,91.88
2019-05-11T03:32:36.724Z,91.60
2019-05-11T03:35:04.673Z,91.48
2019-05-11T03:37:32.128Z,90.73
2019-05-11T03:39:59.597Z,89.27
2019-05-11T03:42:27.029Z,87.51
2019-05-11T03:44:54.514Z,87.03
2019-05-11T03:47:21.908Z,85.70
2019-05-11T03:49:49.342Z,84.75
2019-05-11T03:52:17.132Z,85.14
2019-05-11T03:54:44.488Z,84.79
2019-05-11T03:57:11.918Z,84.39
2019-05-11T03:59:39.498Z,84.05
2019-05-11T04:02:06.862Z,83.96
2019-05-11T04:04:34.288Z,85.44
2019-05-11T04:07:01.841Z,86.12
2019-05-11T04:09:29.207Z,85.67
2019-05-11T04:11:56.668Z,85.63
2019-05-11T04:14:24.121Z,84.34
2019-05-11T04:16:51.521Z,83.04
2019-05-11T04:19:18.888Z,81.97
2019-05-11T04:21:46.338Z,79.99
2019-05-11T04:24:13.772Z,80.31
2019-05-11T04:26:41.237Z,80.12
2019-05-11T04:29:08.656Z,79.60
2019-05-11T04:31:36.058Z,79.69
2019-05-11T04:34:03.625Z,80.33
2019-05-11T04:36:31.101Z,79.87
2019-05-11T04:38:58.573Z,79.00
2019-05-11T04:41:26.005Z,79.17
2019-05-11T04:43:53.570Z,78.14
2019-05-11T04:46:20.970Z,77.79
2019-05-11T04:48:48.345Z,76.47
2019-05-11T04:51:15.801Z,75.98
2019-05-11T04:53:43.243Z,75.00
2019-05-11T04:56:10.684Z,74.57
2019-05-11T04:58:38.090Z,74.33
2019-05-11T05:01:05.663Z,74.06
2019-05-11T05:03:40.758Z,73.73
2019-05-11T05:06:20.999Z,73.25
2019-05-11T05:08:32.590Z,74.14
2019-05-11T05:11:00.751Z,75.12
2019-05-11T05:13:29.565Z,75.43
2019-05-11T05:15:57.638Z,74.17
2019-05-11T05:18:25.286Z,72.82
2019-05-11T05:20:52.755Z,70.39
2019-05-11T05:23:20.459Z,69.91
2019-05-11T05:25:47.935Z,68.62
2019-05-11T05:28:15.381Z,68.03
2019-05-11T05:30:42.772Z,67.04
2019-05-11T05:33:10.214Z,67.07
2019-05-11T05:35:37.664Z,66.95
2019-05-11T05:38:05.128Z,65.79
2019-05-11T05:40:32.682Z,65.60
2019-05-11T05:43:00.212Z,65.37
2019-05-11T05:45:27.623Z,65.51
2019-05-11T05:47:55.126Z,64.33
2019-05-11T05:50:22.587Z,63.05
2019-05-11T05:52:49.997Z,61.88
2019-05-11T05:55:17.441Z,62.65
2019-05-11T05:57:44.878Z,62.70
2019-05-11T06:00:12.945Z,61.76
2019-05-11T06:02:43.162Z,61.94
2019-05-11T06:05:10.798Z,62.24
2019-05-11T06:07:38.250Z,60.88
2019-05-11T06:10:06.721Z,60.02
2019-05-11T06:12:34.197Z,59.72
2019-05-11T06:15:01.719Z,58.54
2019-05-11T06:17:29.200Z,58.79
2019-05-11T06:19:56.658Z,58.45
2019-05-11T06:22:24.018Z,57.99
2019-05-11T06:24:51.454Z,53.49
2019-05-11T06:27:18.939Z,51.29
2019-05-11T06:29:46.341Z,50.18
2019-05-11T06:32:13.814Z,48.23
2019-05-11T06:34:41.267Z,46.90
2019-05-11T06:37:08.775Z,45.17
2019-05-11T06:39:36.264Z,45.61
2019-05-11T06:42:03.641Z,45.18
2019-05-11T06:44:31.048Z,45.60
2019-05-11T06:46:58.575Z,44.52
2019-05-11T06:49:25.989Z,43.01
2019-05-11T06:51:53.497Z,43.26
2019-05-11T06:54:21.006Z,44.86
2019-05-11T06:56:48.489Z,46.04
2019-05-11T06:59:15.933Z,46.95
2019-05-11T07:01:43.387Z,46.91
2019-05-11T07:04:11.028Z,45.89
2019-05-11T07:06:38.460Z,46.98
2019-05-11T07:09:06.813Z,45.83
2019-05-11T07:11:34.262Z,44.81
2019-05-11T07:14:18.709Z,42.48
2019-05-11T07:16:31.015Z,41.76
2019-05-11T07:18:58.452Z,41.65
2019-05-11T07:21:25.953Z,41.48
2019-05-11T07:23:53.405Z,40.50
2019-05-11T07:26:20.864Z,40.36
2019-05-11T07:28:48.588Z,40.16
2019-05-11T07:31:16.044Z,40.60
2019-05-11T07:33:43.496Z,40.36
2019-05-11T07:36:11.159Z,40.52
2019-05-11T07:38:38.656Z,40.00
2019-05-11T07:41:08.615Z,40.93
2019-05-11T07:43:37.858Z,40.98
2019-05-11T07:46:04.912Z,40.43
2019-05-11T07:48:32.296Z,40.50
2019-05-11T07:50:59.755Z,38.76
2019-05-11T07:53:27.983Z,40.84
2019-05-11T07:55:57.715Z,39.18
2019-05-11T07:58:25.245Z,40.23
2019-05-11T08:00:52.696Z,40.67
2019-05-11T08:03:20.158Z,37.87
2019-05-11T08:05:48.039Z,38.87
2019-05-11T08:08:17.891Z,39.00
2019-05-11T08:10:44.987Z,38.69
2019-05-11T08:13:12.546Z,38.24
2019-05-11T08:15:39.975Z,37.87
2019-05-11T08:18:08.507Z,39.45
2019-05-11T08:20:38.349Z,39.53
2019-05-11T08:23:05.548Z,40.19
2019-05-11T08:25:33.066Z,41.04
2019-05-11T08:28:00.693Z,40.82
2019-05-11T08:30:28.184Z,40.52
2019-05-11T08:32:58.079Z,39.49
2019-05-11T08:35:30.373Z,37.39
2019-05-11T08:37:54.333Z,38.01
2019-05-11T08:40:21.904Z,37.88
2019-05-11T08:42:49.381Z,38.35
2019-05-11T08:45:23.679Z,36.29
2019-05-11T08:47:48.436Z,35.65
2019-05-11T08:50:15.794Z,36.51
2019-05-11T08:52:44.048Z,34.62
2019-05-11T08:55:11.682Z,34.20
2019-05-11T08:57:39.067Z,33.67
2019-05-11T09:00:08.705Z,34.06
2019-05-11T09:02:38.180Z,32.14
2019-05-11T09:05:07.978Z,32.40
2019-05-11T09:07:35.151Z,32.68
2019-05-11T09:10:02.672Z,31.30
2019-05-11T09:12:30.155Z,33.13
2019-05-11T09:14:58.194Z,34.02
2019-05-11T09:17:25.855Z,30.81
2019-05-11T09:19:53.351Z,30.71
2019-05-11T09:22:20.823Z,30.07
2019-05-11T09:24:48.248Z,29.81
2019-05-11T09:27:18.189Z,30.68
2019-05-11T09:29:45.270Z,31.21
2019-05-11T09:32:12.660Z,32.67
2019-05-11T09:34:40.118Z,32.06
2019-05-11T09:37:08.026Z,33.55
2019-05-11T09:39:35.557Z,31.71
2019-05-11T09:42:02.989Z,32.72
2019-05-11T09:44:30.471Z,32.83
2019-05-11T09:47:02.272Z,33.78
2019-05-11T09:49:43.364Z,34.02
2019-05-11T09:51:58.747Z,32.23
2019-05-11T09:54:25.980Z,32.61
2019-05-11T09:56:53.426Z,33.43
2019-05-11T09:59:20.815Z,32.77
2019-05-11T10:01:48.508Z,32.30
2019-05-11T10:04:17.918Z,32.18
2019-05-11T10:06:45.303Z,32.29
2019-05-11T10:09:13.640Z,32.99
2019-05-11T10:11:41.077Z,33.26
2019-05-11T10:14:08.600Z,32.04
2019-05-11T10:16:38.437Z,31.92
2019-05-11T10:19:05.519Z,31.65
2019-05-11T10:21:32.973Z,32.44
2019-05-11T10:24:00.459Z,31.80
2019-05-11T10:26:27.997Z,32.45
2019-05-11T10:28:55.499Z,32.28
2019-05-11T10:31:22.953Z,32.18
2019-05-11T10:33:50.369Z,31.77
2019-05-11T10:36:18.883Z,31.62
2019-05-11T10:38:48.766Z,31.29
2019-05-11T10:41:18.085Z,30.72
2019-05-11T10:43:45.397Z,31.68
2019-05-11T10:46:19.464Z,31.54
2019-05-11T10:48:42.219Z,31.20
2019-05-11T10:51:09.730Z,31.69
2019-05-11T10:53:38.396Z,30.76
2019-05-11T10:56:08.548Z,29.69
2019-05-11T10:58:37.750Z,30.19
2019-05-11T11:01:04.972Z,31.01
2019-05-11T11:03:32.557Z,30.17
2019-05-11T11:06:00.032Z,31.30
2019-05-11T11:08:27.945Z,30.95
2019-05-11T11:10:55.707Z,30.02
2019-05-11T11:13:23.116Z,31.22
2019-05-11T11:15:50.594Z,31.71
2019-05-11T11:18:18.895Z,30.62
2019-05-11T11:20:48.685Z,30.73
2019-05-11T11:23:17.752Z,29.74
2019-05-11T11:25:45.181Z,30.21
2019-05-11T11:28:12.647Z,29.66
2019-05-11T11:30:40.118Z,29.05
2019-05-11T11:33:08.069Z,28.45
2019-05-11T11:35:35.837Z,29.21
2019-05-11T11:38:03.528Z,30.01
2019-05-11T11:40:31.010Z,28.33
2019-05-11T11:42:58.599Z,28.03
2019-05-11T11:45:28.596Z,27.76
2019-05-11T11:47:57.975Z,27.25
2019-05-11T11:50:25.102Z,27.31
2019-05-11T11:52:52.577Z,27.71
2019-05-11T11:55:20.010Z,27.47
2019-05-11T11:57:48.644Z,27.83
2019-05-11T12:00:18.378Z,27.75
2019-05-11T12:02:45.960Z,28.24
2019-05-11T12:05:13.653Z,27.00
2019-05-11T12:07:41.098Z,26.51
2019-05-11T12:10:09.359Z,26.60
2019-05-11T12:12:38.728Z,26.50
2019-05-11T12:15:08.662Z,26.29
2019-05-11T12:17:37.661Z,26.43
2019-05-11T12:20:05.688Z,27.69
2019-05-11T12:22:33.192Z,28.25
2019-05-11T12:25:00.635Z,29.55
2019-05-11T12:27:28.687Z,30.80
2019-05-11T12:29:58.177Z,31.84
2019-05-11T12:32:33.264Z,33.46
2019-05-11T12:35:00.725Z,34.58
2019-05-11T12:37:28.294Z,34.22
2019-05-11T12:39:55.783Z,34.43
2019-05-11T12:42:23.245Z,34.55
2019-05-11T12:44:50.712Z,34.38
2019-05-11T12:47:24.259Z,34.54
2019-05-11T12:49:48.359Z,34.87
2019-05-11T12:52:18.273Z,35.08
2019-05-11T12:54:47.751Z,35.14
2019-05-11T12:57:14.825Z,35.42
2019-05-11T12:59:42.288Z,35.22
2019-05-11T13:02:09.774Z,35.73
2019-05-11T13:04:38.487Z,34.48
2019-05-11T13:07:06.138Z,35.53
2019-05-11T13:09:33.595Z,34.84
2019-05-11T13:12:01.131Z,34.65
2019-05-11T13:14:28.660Z,34.52
2019-05-11T13:16:58.932Z,34.23
2019-05-11T13:19:28.210Z,34.70
2019-05-11T13:21:55.859Z,33.74
2019-05-11T13:24:23.268Z,33.65
2019-05-11T13:26:50.733Z,33.17
2019-05-11T13:29:18.292Z,33.12
2019-05-11T13:31:45.709Z,33.19
2019-05-11T13:34:13.172Z,33.07
2019-05-11T13:36:40.714Z,31.87
2019-05-11T13:39:08.877Z,31.48
2019-05-11T13:41:38.285Z,31.19
2019-05-11T13:44:07.975Z,30.97
2019-05-11T13:46:35.454Z,30.94
2019-05-11T13:49:02.944Z,30.22
2019-05-11T13:51:30.430Z,30.40
2019-05-11T13:53:58.418Z,30.58
2019-05-11T13:56:28.114Z,30.73
2019-05-11T13:58:59.374Z,30.90
2019-05-11T14:01:27.864Z,30.44
2019-05-11T14:03:55.436Z,30.53
2019-05-11T14:06:22.799Z,29.33
2019-05-11T14:08:50.223Z,29.75
2019-05-11T14:11:18.408Z,30.31
2019-05-11T14:13:48.084Z,30.67
2019-05-11T14:16:17.915Z,31.56
2019-05-11T14:18:45.301Z,31.73
2019-05-11T14:21:12.757Z,32.09
2019-05-11T14:23:40.191Z,31.78
2019-05-11T14:26:08.441Z,31.47
2019-05-11T14:28:37.699Z,31.66
2019-05-11T14:31:05.426Z,32.01
2019-05-11T14:33:32.845Z,32.53
2019-05-11T14:36:00.229Z,32.69
2019-05-11T14:38:28.913Z,32.35
2019-05-11T14:40:58.486Z,31.94
2019-05-11T14:43:27.750Z,31.76
2019-05-11T14:45:55.157Z,32.15
2019-05-11T14:48:26.850Z,31.71
2019-05-11T14:50:52.029Z,30.79
2019-05-11T14:53:19.496Z,31.10
2019-05-11T14:55:48.774Z,30.83
2019-05-11T14:58:19.414Z,30.98
2019-05-11T15:00:45.627Z,31.47
2019-05-11T15:03:13.083Z,31.18
2019-05-11T15:05:41.465Z,31.47
2019-05-11T15:08:09.722Z,31.37
2019-05-11T15:10:38.264Z,31.60
2019-05-11T15:13:07.963Z,31.40
2019-05-11T15:15:35.300Z,31.42
2019-05-11T15:18:02.976Z,31.24
2019-05-11T15:20:30.410Z,31.14
2019-05-11T15:22:58.263Z,31.18
2019-05-11T15:25:25.717Z,31.74
2019-05-11T15:27:53.172Z,29.80
2019-05-11T15:30:20.753Z,29.95
2019-05-11T15:32:48.550Z,30.06
2019-05-11T15:35:18.398Z,30.96
2019-05-11T15:37:47.306Z,31.67
2019-05-11T15:40:18.641Z,32.22
2019-05-11T15:42:48.380Z,32.23
2019-05-11T15:45:18.656Z,32.08
2019-05-11T15:47:48.448Z,32.17
2019-05-11T15:50:18.942Z,32.48
2019-05-11T15:52:48.496Z,31.79
2019-05-11T15:55:15.600Z,32.28
2019-05-11T15:57:43.093Z,32.28
2019-05-11T16:00:12.892Z,31.67
2019-05-11T16:02:41.191Z,30.39
2019-05-11T16:05:09.303Z,30.44
2019-05-11T16:07:38.403Z,31.02
2019-05-11T16:10:08.106Z,30.43
2019-05-11T16:12:35.868Z,30.72
2019-05-11T16:15:04.786Z,30.82
2019-05-11T16:17:32.255Z,30.56
2019-05-11T16:19:59.695Z,30.54
2019-05-11T16:22:27.983Z,30.63
2019-05-11T16:24:57.957Z,30.91
2019-05-11T16:27:24.884Z,30.81
2019-05-11T16:29:52.408Z,30.83
2019-05-11T16:32:19.969Z,31.04
2019-05-11T16:34:47.442Z,31.28
2019-05-11T16:37:14.878Z,31.36
2019-05-11T16:39:42.292Z,31.23
2019-05-11T16:42:09.662Z,31.26
2019-05-11T16:44:37.853Z,31.99
2019-05-11T16:47:07.722Z,31.92
2019-05-11T16:49:34.956Z,31.97
2019-05-11T16:52:02.363Z,31.89
2019-05-11T16:54:29.795Z,32.37
2019-05-11T16:56:57.974Z,32.15
2019-05-11T16:59:25.581Z,32.49
2019-05-11T17:01:53.025Z,32.44
2019-05-11T17:04:20.486Z,33.03
2019-05-11T17:06:48.645Z,33.38
2019-05-11T17:09:18.024Z,32.82
2019-05-11T17:11:45.830Z,34.50
2019-05-11T17:14:13.344Z,35.13
2019-05-11T17:16:40.754Z,35.70
2019-05-11T17:19:08.336Z,34.97
2019-05-11T17:21:38.173Z,34.88
2019-05-11T17:24:05.187Z,34.38
2019-05-11T17:26:32.576Z,35.19
2019-05-11T17:28:59.983Z,35.86
2019-05-11T17:31:27.402Z,36.51
2019-05-11T17:33:54.757Z,35.57
2019-05-11T17:36:22.208Z,36.65
2019-05-11T17:38:49.643Z,35.83
2019-05-11T17:41:17.066Z,37.88
2019-05-11T17:43:44.536Z,37.05
2019-05-11T17:46:11.971Z,37.25
2019-05-11T17:48:39.392Z,37.76
2019-05-11T17:51:19.968Z,38.24
2019-05-11T17:53:37.831Z,39.05
2019-05-11T17:56:05.644Z,38.37
2019-05-11T17:58:33.072Z,38.77
2019-05-11T18:01:00.503Z,39.00
2019-05-11T18:03:28.048Z,39.85
2019-05-11T18:05:55.503Z,39.86
2019-05-11T18:08:22.925Z,39.26
2019-05-11T18:10:50.362Z,39.20
2019-05-11T18:13:17.961Z,39.34
2019-05-11T18:15:45.588Z,39.86
2019-05-11T18:18:13.008Z,40.00
2019-05-11T18:20:40.438Z,40.00
2019-05-11T18:23:08.392Z,40.08
2019-05-11T18:25:36.081Z,40.63
2019-05-11T18:28:03.552Z,41.14
2019-05-11T18:30:30.990Z,42.46
2019-05-11T18:32:59.470Z,44.27
2019-05-11T18:35:27.874Z,44.26
2019-05-11T18:37:55.500Z,45.35
2019-05-11T18:40:22.918Z,46.14
2019-05-11T18:42:50.312Z,46.72
2019-05-11T18:45:18.815Z,47.69
2019-05-11T18:47:48.857Z,48.12
2019-05-11T18:50:29.310Z,48.32
2019-05-11T18:52:45.726Z,48.04
2019-05-11T18:55:13.238Z,47.41
2019-05-11T18:57:40.728Z,47.81
2019-05-11T19:00:08.856Z,47.92
2019-05-11T19:02:38.489Z,47.61
2019-05-11T19:05:05.875Z,47.78
2019-05-11T19:07:33.306Z,47.40
2019-05-11T19:10:00.724Z,48.12
2019-05-11T19:12:28.293Z,48.30
2019-05-11T19:14:58.538Z,48.79
2019-05-11T19:17:25.220Z,48.25
2019-05-11T19:19:52.830Z,49.14
2019-05-11T19:22:20.236Z,50.63
2019-05-11T19:24:47.696Z,51.68
2019-05-11T19:27:15.080Z,51.73
2019-05-11T19:29:42.509Z,52.02
2019-05-11T19:32:11.160Z,52.43
2019-05-11T19:34:38.961Z,52.02
2019-05-11T19:37:08.469Z,52.13
2019-05-11T19:39:35.732Z,52.16
2019-05-11T19:42:03.098Z,52.58
2019-05-11T19:44:30.531Z,51.34
2019-05-11T19:46:58.241Z,50.68
2019-05-11T19:49:27.828Z,51.06
2019-05-11T19:51:55.127Z,50.70
2019-05-11T19:54:22.597Z,50.98
2019-05-11T19:56:52.267Z,51.22
2019-05-11T19:59:19.380Z,51.50
2019-05-11T20:01:46.808Z,51.34
2019-05-11T20:04:14.272Z,51.37
2019-05-11T20:06:41.734Z,51.00
2019-05-11T20:09:09.136Z,50.62
2019-05-11T20:11:38.359Z,51.45
2019-05-11T20:14:08.086Z,51.40
2019-05-11T20:16:35.473Z,51.83
2019-05-11T20:19:02.850Z,52.38
2019-05-11T20:21:30.278Z,52.33
2019-05-11T20:23:57.965Z,52.35
2019-05-11T20:26:25.411Z,52.47
2019-05-11T20:28:52.827Z,52.86
2019-05-11T20:31:20.279Z,52.68
2019-05-11T20:33:47.793Z,52.47
2019-05-11T20:36:17.643Z,52.95
2019-05-11T20:38:44.589Z,52.73
2019-05-11T20:41:12.030Z,52.89
2019-05-11T20:43:39.408Z,53.57
2019-05-11T20:46:08.176Z,53.64
2019-05-11T20:48:38.257Z,53.96
2019-05-11T20:51:08.142Z,54.90
2019-05-11T20:53:35.903Z,55.93
2019-05-11T20:56:03.334Z,55.82
2019-05-11T20:58:50.257Z,55.91
2019-05-11T21:01:18.244Z,55.77
2019-05-11T21:03:48.644Z,55.98
2019-05-11T21:06:18.357Z,55.71
2019-05-11T21:08:48.063Z,55.88
2019-05-11T21:11:14.880Z,55.97
2019-05-11T21:13:42.396Z,56.94
2019-05-11T21:16:09.863Z,57.49
2019-05-11T21:18:38.107Z,58.31
2019-05-11T21:21:05.707Z,58.48
2019-05-11T21:23:33.156Z,58.43
2019-05-11T21:26:00.747Z,58.79
2019-05-11T21:28:30.512Z,57.98
2019-05-11T21:30:58.499Z,57.26
2019-05-11T21:33:28.203Z,56.86
2019-05-11T21:35:58.058Z,56.78
2019-05-11T21:38:24.949Z,56.58
2019-05-11T21:40:52.343Z,56.82
2019-05-11T21:43:19.797Z,57.59
2019-05-11T21:45:47.232Z,57.68
2019-05-11T21:48:14.612Z,57.48
2019-05-11T21:50:42.049Z,57.87
2019-05-11T21:53:10.598Z,58.97
2019-05-11T21:55:38.443Z,60.52
2019-05-11T21:58:05.901Z,60.41
2019-05-11T22:00:33.954Z,61.34
2019-05-11T22:03:01.371Z,60.72
2019-05-11T22:05:29.176Z,62.64
2019-05-11T22:07:58.239Z,63.27
2019-05-11T22:10:28.089Z,62.67
2019-05-11T22:12:55.301Z,61.14
2019-05-11T22:15:22.790Z,61.68
2019-05-11T22:17:50.257Z,61.66
2019-05-11T22:20:18.358Z,62.54
2019-05-11T22:22:47.602Z,62.77
2019-05-11T22:25:15.295Z,63.25
2019-05-11T22:27:42.826Z,62.96
2019-05-11T22:30:11.225Z,63.48
2019-05-11T22:32:38.813Z,64.23
2019-05-11T22:35:06.340Z,65.09
2019-05-11T22:37:33.719Z,65.29
2019-05-11T22:40:01.396Z,64.96
2019-05-11T22:42:28.807Z,65.18
2019-05-11T22:44:56.189Z,64.46
2019-05-11T22:47:23.631Z,64.92
2019-05-11T22:49:51.063Z,64.78
2019-05-11T22:52:31.904Z,65.13
2019-05-11T22:54:48.460Z,63.63
2019-05-11T22:57:16.361Z,61.80
2019-05-11T22:59:43.841Z,62.63
2019-05-11T23:02:11.508Z,63.54
2019-05-11T23:04:38.898Z,61.12
2019-05-11T23:07:07.968Z,62.51
2019-05-11T23:09:38.003Z,61.81
2019-05-11T23:12:04.949Z,61.33
2019-05-11T23:14:32.558Z,61.67
2019-05-11T23:17:00.018Z,61.47
2019-05-11T23:19:27.933Z,61.00
2019-05-11T23:21:55.575Z,60.32
2019-05-11T23:24:22.968Z,60.63
2019-05-11T23:26:50.432Z,60.96
2019-05-11T23:29:17.899Z,61.80
2019-05-11T23:31:47.605Z,61.21
2019-05-11T23:34:14.693Z,61.12
2019-05-11T23:36:42.256Z,61.46
2019-05-11T23:39:09.714Z,61.44
2019-05-11T23:41:38.020Z,61.20
2019-05-11T23:44:05.631Z,61.46
2019-05-11T23:46:33.165Z,61.32
2019-05-11T23:49:00.603Z,61.34
2019-05-11T23:51:28.258Z,60.75
2019-05-11T23:53:55.849Z,60.97
2019-05-11T23:56:23.267Z,61.01
2019-05-11T23:58:50.827Z,60.78
